Time;durP1;ratioP1;P1;durP2;ratioP2;P2;SDS_P1;SDS_P2;PMS_P1;PMS_P2;Temp;Humidity;BMP_temperature;BMP_pressure;BME280_temperature;BME280_humidity;BME280_pressure;Samples;Min_cycle;Max_cycle;Signal;HPM_P1;HPM_P2
2022/03/17 00:00:38;;;;;;;6.75;5.97;;;18.00;53.90;;;;;;4967589;28;98639;-71
2022/03/17 00:03:04;;;;;;;6.70;5.90;;;18.00;53.80;;;;;;4967159;28;99199;-70
2022/03/17 00:05:30;;;;;;;7.30;6.57;;;18.00;53.80;;;;;;4966467;28;100694;-70
2022/03/17 00:07:56;;;;;;;7.38;6.10;;;18.00;53.80;;;;;;4967410;28;99122;-70
2022/03/17 00:10:22;;;;;;;6.82;6.10;;;18.00;53.70;;;;;;4966907;28;98592;-71
2022/03/17 00:12:48;;;;;;;6.60;5.90;;;18.00;53.80;;;;;;4966781;28;100892;-71
2022/03/17 00:15:15;;;;;;;6.65;5.85;;;18.00;53.70;;;;;;4966425;28;100527;-71
2022/03/17 00:17:41;;;;;;;6.63;5.93;;;18.00;53.80;;;;;;4967332;28;99003;-71
2022/03/17 00:20:10;;;;;;;7.38;6.20;;;18.00;53.70;;;;;;4967095;28;99315;-70
2022/03/17 00:22:36;;;;;;;7.63;6.30;;;18.00;53.70;;;;;;4965886;28;101194;-71
2022/03/17 00:25:04;;;;;;;6.82;6.07;;;18.00;53.70;;;;;;4967042;28;99276;-71
2022/03/17 00:27:29;;;;;;;7.05;6.07;;;18.00;53.70;;;;;;4967224;28;99148;-71
2022/03/17 00:29:57;;;;;;;6.28;5.68;;;18.00;53.70;;;;;;4967450;28;99058;-71
2022/03/17 00:32:23;;;;;;;7.43;6.30;;;18.00;53.80;;;;;;4967458;28;99552;-70
2022/03/17 00:37:33;;;;;;;7.35;6.10;;;18.00;53.70;;;;;;4967509;28;99553;-70
2022/03/17 00:39:59;;;;;;;7.53;6.45;;;18.00;53.70;;;;;;4970594;28;98543;-70
2022/03/17 00:42:24;;;;;;;7.30;6.60;;;17.90;53.60;;;;;;4969563;28;99368;-70
2022/03/17 00:44:50;;;;;;;8.45;6.88;;;17.90;53.60;;;;;;4969337;28;99146;-70
2022/03/17 00:47:17;;;;;;;7.38;6.60;;;17.90;53.60;;;;;;4969433;28;98899;-70
2022/03/17 00:49:42;;;;;;;7.10;6.40;;;17.90;53.60;;;;;;4970388;28;98638;-70
2022/03/17 00:52:11;;;;;;;6.90;6.10;;;17.90;53.60;;;;;;4969233;28;100524;-70
2022/03/17 00:54:39;;;;;;;7.40;6.03;;;17.90;53.60;;;;;;4969646;28;100786;-71
2022/03/17 00:57:14;;;;;;;8.02;6.88;;;17.90;53.60;;;;;;4951694;28;98682;-70
2022/03/17 00:59:40;;;;;;;6.90;6.18;;;17.90;53.50;;;;;;4969051;28;98649;-71
2022/03/17 01:02:08;;;;;;;8.38;6.93;;;17.90;53.60;;;;;;4969400;28;101897;-70
2022/03/17 01:04:35;;;;;;;7.07;6.40;;;17.90;53.60;;;;;;4969656;28;101008;-70
2022/03/17 01:07:01;;;;;;;7.28;6.55;;;17.90;53.60;;;;;;4969595;28;99525;-70
2022/03/17 01:09:29;;;;;;;7.13;6.43;;;17.90;53.60;;;;;;4969367;28;100225;-71
2022/03/17 01:11:55;;;;;;;6.97;6.28;;;17.90;53.50;;;;;;4969318;28;100126;-70
2022/03/17 01:14:21;;;;;;;7.32;6.63;;;17.90;54.50;;;;;;4970047;28;98819;-70
2022/03/17 01:16:46;;;;;;;6.93;6.32;;;17.90;53.50;;;;;;4971092;28;98591;-70
2022/03/17 01:19:12;;;;;;;6.88;6.15;;;17.90;53.60;;;;;;4971433;28;98023;-70
2022/03/17 01:21:39;;;;;;;7.57;6.85;;;17.90;53.50;;;;;;4973403;28;100189;-70
2022/03/17 01:24:06;;;;;;;7.40;6.70;;;17.90;53.50;;;;;;4972779;28;99214;-70
2022/03/17 01:26:31;;;;;;;7.68;6.88;;;17.80;53.50;;;;;;4971245;28;99401;-70
2022/03/17 01:28:58;;;;;;;7.22;6.53;;;17.80;53.50;;;;;;4970518;28;99881;-70
2022/03/17 01:31:23;;;;;;;7.30;6.63;;;17.80;53.50;;;;;;4969498;28;102215;-70
2022/03/17 01:33:50;;;;;;;7.82;6.75;;;17.80;53.50;;;;;;4969787;28;100133;-70
2022/03/17 01:36:16;;;;;;;8.60;7.22;;;17.80;53.50;;;;;;4969021;28;99137;-70
2022/03/17 01:38:42;;;;;;;7.80;7.00;;;17.80;53.50;;;;;;4970414;28;99083;-71
2022/03/17 01:41:08;;;;;;;7.68;6.88;;;17.80;53.40;;;;;;4969347;28;99163;-71
2022/03/17 01:43:33;;;;;;;7.65;6.78;;;17.80;53.40;;;;;;4969677;28;100024;-70
2022/03/17 01:45:59;;;;;;;7.90;7.10;;;17.80;53.40;;;;;;4969268;28;99746;-71
2022/03/17 01:48:25;;;;;;;8.40;7.57;;;17.80;53.40;;;;;;4968550;28;98963;-70
2022/03/17 01:50:51;;;;;;;7.38;6.70;;;17.80;53.40;;;;;;4967716;28;99938;-70
2022/03/17 01:53:17;;;;;;;7.20;6.50;;;17.80;53.40;;;;;;4968915;28;100954;-70
2022/03/17 01:55:50;;;;;;;8.25;7.45;;;17.80;53.40;;;;;;4968676;28;98640;-70
2022/03/17 01:58:17;;;;;;;7.70;7.00;;;17.90;53.40;;;;;;4969040;28;98890;-70
2022/03/17 02:00:45;;;;;;;7.82;7.13;;;17.80;53.40;;;;;;4970124;28;99732;-70
2022/03/17 02:03:11;;;;;;;7.95;7.15;;;17.80;53.30;;;;;;4969730;28;99954;-69
2022/03/17 02:05:38;;;;;;;8.23;7.43;;;17.80;53.30;;;;;;4969224;28;98624;-70
2022/03/17 02:08:07;;;;;;;8.27;7.47;;;17.80;53.40;;;;;;4969028;28;98391;-70
2022/03/17 02:13:08;;;;;;;8.88;7.60;;;17.80;53.30;;;;;;4968011;28;99106;-70
2022/03/17 02:13:18;;;;;;;7.80;7.07;;;17.80;53.40;;;;;;4967837;28;100600;-70
2022/03/17 02:15:49;;;;;;;8.20;7.40;;;17.80;53.30;;;;;;4968472;28;99806;-70
2022/03/17 02:18:16;;;;;;;8.95;7.47;;;17.80;53.40;;;;;;4968090;28;98547;-70
2022/03/17 02:20:42;;;;;;;8.10;7.30;;;17.80;53.30;;;;;;4967914;28;100725;-70
2022/03/17 02:26:00;;;;;;;8.95;8.05;;;17.80;53.30;;;;;;4969275;28;99042;-70
2022/03/17 02:28:27;;;;;;;8.65;7.40;;;17.80;53.30;;;;;;4968228;28;99068;-70
2022/03/17 02:30:54;;;;;;;9.40;8.00;;;17.80;53.30;;;;;;4968535;28;100485;-70
2022/03/17 02:33:20;;;;;;;8.45;7.55;;;17.80;53.30;;;;;;4969404;28;98805;-70
2022/03/17 02:35:47;;;;;;;8.43;7.63;;;17.80;53.30;;;;;;4968825;28;99094;-70
2022/03/17 02:38:13;;;;;;;10.10;7.35;;;17.80;53.30;;;;;;4969105;28;99354;-70
2022/03/17 02:40:40;;;;;;;9.65;7.80;;;17.70;53.30;;;;;;4967785;28;100879;-70
2022/03/17 02:43:06;;;;;;;8.88;7.97;;;17.70;53.20;;;;;;4969111;28;99567;-70
2022/03/17 02:45:36;;;;;;;8.88;8.07;;;17.70;53.30;;;;;;4968946;28;99164;-70
2022/03/17 02:48:04;;;;;;;8.60;7.57;;;17.80;53.20;;;;;;4969330;28;99127;-70
2022/03/17 02:50:30;;;;;;;8.15;7.35;;;17.70;53.20;;;;;;4967968;28;99515;-70
2022/03/17 02:52:57;;;;;;;8.73;7.82;;;17.70;53.30;;;;;;4968567;28;99037;-70
2022/03/17 02:55:23;;;;;;;9.63;8.63;;;17.80;53.30;;;;;;4968935;28;98975;-71
2022/03/17 02:57:49;;;;;;;9.02;8.13;;;17.70;53.20;;;;;;4968813;28;98050;-70
2022/03/17 03:00:15;;;;;;;9.52;7.90;;;17.70;53.30;;;;;;4966675;28;101114;-70
2022/03/17 03:02:42;;;;;;;8.85;7.85;;;17.70;53.20;;;;;;4966762;28;100864;-69
2022/03/17 03:05:09;;;;;;;8.65;7.75;;;17.70;53.30;;;;;;4967721;28;99947;-70
2022/03/17 03:07:36;;;;;;;8.93;8.02;;;17.70;53.20;;;;;;4967201;28;98567;-70
2022/03/17 03:10:04;;;;;;;9.05;8.15;;;17.70;53.30;;;;;;4967266;28;100214;-70
2022/03/17 03:12:30;;;;;;;8.82;7.93;;;17.70;53.30;;;;;;4966788;28;100465;-70
2022/03/17 03:14:55;;;;;;;9.10;8.20;;;17.70;53.40;;;;;;4967592;28;98994;-70
2022/03/17 03:17:21;;;;;;;8.93;8.02;;;17.70;53.40;;;;;;4967418;28;98883;-70
2022/03/17 03:19:48;;;;;;;8.98;8.07;;;17.70;53.40;;;;;;4967951;28;99696;-70
2022/03/17 03:22:17;;;;;;;9.75;8.13;;;17.70;53.40;;;;;;4967888;28;98775;-70
2022/03/17 03:24:44;;;;;;;9.18;8.25;;;17.70;53.40;;;;;;4967930;28;98585;-70
2022/03/17 03:27:10;;;;;;;9.55;7.82;;;17.70;53.40;;;;;;4967891;28;98966;-70
2022/03/17 03:29:36;;;;;;;8.82;7.93;;;17.70;53.50;;;;;;4967778;28;100490;-70
2022/03/17 03:32:03;;;;;;;8.80;7.97;;;17.70;53.50;;;;;;4967580;28;108839;-70
2022/03/17 03:34:30;;;;;;;9.13;8.20;;;17.70;53.50;;;;;;4966832;28;98680;-70
2022/03/17 03:39:41;;;;;;;8.90;8.00;;;17.70;53.50;;;;;;4968498;28;98874;-70
2022/03/17 03:42:07;;;;;;;10.15;8.60;;;17.70;53.50;;;;;;4966850;28;100786;-70
2022/03/17 03:44:33;;;;;;;9.20;8.02;;;17.70;53.50;;;;;;4967526;28;98643;-70
2022/03/17 03:46:59;;;;;;;9.35;8.25;;;17.70;53.50;;;;;;4966995;28;98312;-70
2022/03/17 03:49:25;;;;;;;9.40;8.40;;;17.70;53.60;;;;;;4966741;28;99371;-70
2022/03/17 03:51:51;;;;;;;8.80;7.90;;;17.70;53.60;;;;;;4966546;28;99984;-70
2022/03/17 03:54:17;;;;;;;9.43;8.40;;;17.70;53.60;;;;;;4966365;28;101034;-70
2022/03/17 03:56:47;;;;;;;9.25;8.35;;;17.70;53.70;;;;;;4967745;28;98576;-70
2022/03/17 03:59:20;;;;;;;9.60;8.25;;;17.70;53.60;;;;;;4967895;28;99292;-71
2022/03/17 04:01:51;;;;;;;9.27;8.23;;;17.70;53.60;;;;;;4966727;28;100053;-70
2022/03/17 04:04:18;;;;;;;8.52;7.43;;;17.60;53.60;;;;;;4967006;28;99087;-70
2022/03/17 04:06:45;;;;;;;8.48;7.57;;;17.70;53.70;;;;;;4966703;28;98996;-70
2022/03/17 04:09:12;;;;;;;8.68;7.70;;;17.70;53.70;;;;;;4966513;28;101063;-71
2022/03/17 04:11:40;;;;;;;8.55;7.68;;;17.70;53.70;;;;;;4967827;28;100151;-70
2022/03/17 04:14:17;;;;;;;8.50;7.60;;;17.70;53.70;;;;;;4971411;28;98608;-70
2022/03/17 04:16:44;;;;;;;8.10;7.00;;;17.70;53.60;;;;;;4975768;28;99066;-70
2022/03/17 04:19:10;;;;;;;7.80;7.00;;;17.60;53.60;;;;;;4974354;28;101288;-70
2022/03/17 04:21:36;;;;;;;8.25;6.68;;;17.70;53.70;;;;;;4975914;28;100695;-70
2022/03/17 04:24:02;;;;;;;8.13;7.32;;;17.60;53.60;;;;;;4973975;28;99162;-70
2022/03/17 04:26:27;;;;;;;7.53;6.72;;;17.70;53.60;;;;;;4970161;28;98634;-70
2022/03/17 04:28:53;;;;;;;7.13;6.43;;;17.70;53.70;;;;;;4969632;28;99365;-70
2022/03/17 04:31:23;;;;;;;7.40;6.45;;;17.70;53.60;;;;;;4969626;28;99895;-70
2022/03/17 04:33:49;;;;;;;6.82;6.20;;;17.70;53.60;;;;;;4970163;28;98878;-70
2022/03/17 04:36:15;;;;;;;6.97;6.22;;;17.60;53.60;;;;;;4970966;28;98049;-70
2022/03/17 04:38:41;;;;;;;6.20;5.60;;;17.60;53.60;;;;;;4970416;28;100276;-70
2022/03/17 04:41:08;;;;;;;6.20;5.60;;;17.60;53.50;;;;;;4969282;28;99274;-70
2022/03/17 04:43:34;;;;;;;6.05;5.45;;;17.60;54.50;;;;;;4970207;28;99572;-70
2022/03/17 04:46:00;;;;;;;6.78;6.07;;;17.60;53.50;;;;;;4970179;28;98981;-70
2022/03/17 04:48:26;;;;;;;6.65;5.80;;;17.60;53.60;;;;;;4969350;28;100128;-70
2022/03/17 04:50:51;;;;;;;6.68;5.60;;;17.60;53.60;;;;;;4970413;28;99918;-71
2022/03/17 04:53:32;;;;;;;6.15;5.55;;;17.60;53.50;;;;;;4971322;28;98645;-70
2022/03/17 04:56:12;;;;;;;6.10;5.50;;;17.60;53.50;;;;;;4970998;28;98490;-70
2022/03/17 04:58:43;;;;;;;6.45;5.13;;;17.60;53.40;;;;;;4970562;28;99145;-70
2022/03/17 05:01:14;;;;;;;5.72;5.13;;;17.60;53.50;;;;;;4970128;28;100301;-70
2022/03/17 05:03:41;;;;;;;6.20;5.43;;;17.60;53.50;;;;;;4970236;28;98592;-70
2022/03/17 05:06:11;;;;;;;5.88;5.30;;;17.60;53.50;;;;;;4970206;28;98690;-71
2022/03/17 05:08:36;;;;;;;5.18;4.60;;;17.60;53.50;;;;;;4968415;28;99799;-70
2022/03/17 05:11:03;;;;;;;5.25;4.72;;;17.60;53.50;;;;;;4970010;28;99475;-70
2022/03/17 05:13:29;;;;;;;5.80;5.00;;;17.60;53.50;;;;;;4970118;28;98842;-70
2022/03/17 06:19:31;;;;;;;4.72;3.00;;;17.90;53.80;;;;;;4888451;22;104904;-72
2022/03/17 06:21:58;;;;;;;6.18;2.90;;;18.00;53.70;;;;;;4971088;28;98602;-70
2022/03/17 06:24:25;;;;;;;4.80;2.58;;;18.10;53.70;;;;;;4972517;28;98272;-71
2022/03/17 06:26:51;;;;;;;3.88;2.45;;;18.20;53.50;;;;;;4972948;28;99145;-72
2022/03/17 06:29:17;;;;;;;3.92;2.30;;;18.30;53.30;;;;;;4974328;28;99145;-73
2022/03/17 06:31:43;;;;;;;4.00;2.33;;;18.30;53.20;;;;;;4971234;28;99423;-72
2022/03/17 06:34:08;;;;;;;6.95;2.53;;;18.40;53.50;;;;;;4974464;28;98960;-71
2022/03/17 06:36:35;;;;;;;4.43;2.08;;;18.40;53.20;;;;;;4974308;28;99133;-71
2022/03/17 06:39:02;;;;;;;3.15;2.15;;;18.40;53.30;;;;;;4974278;28;99434;-72
2022/03/17 06:41:28;;;;;;;7.80;2.20;;;18.50;53.50;;;;;;4970653;28;98608;-70
2022/03/17 06:43:53;;;;;;;8.63;2.22;;;18.50;53.40;;;;;;4968556;28;99182;-70
2022/03/17 06:46:19;;;;;;;7.07;2.00;;;18.50;53.20;;;;;;4968267;28;101596;-70
2022/03/17 06:48:44;;;;;;;6.40;2.10;;;18.50;53.00;;;;;;4968915;28;100164;-70
2022/03/17 06:51:10;;;;;;;6.65;1.90;;;18.50;53.00;;;;;;4968260;28;99701;-70
2022/03/17 06:53:36;;;;;;;6.63;1.92;;;18.50;53.00;;;;;;4968257;28;99260;-71
2022/03/17 06:56:02;;;;;;;7.82;2.45;;;18.50;53.20;;;;;;4967220;28;105994;-71
2022/03/17 06:58:28;;;;;;;6.35;1.92;;;18.50;53.20;;;;;;4968075;28;99610;-71
2022/03/17 07:00:53;;;;;;;5.82;1.90;;;18.60;53.30;;;;;;4968626;28;98790;-70
2022/03/17 07:03:19;;;;;;;6.05;1.77;;;18.60;53.40;;;;;;4968317;28;99003;-70
2022/03/17 07:05:44;;;;;;;3.85;1.90;;;18.60;53.50;;;;;;4965781;28;117883;-71
2022/03/17 07:08:10;;;;;;;6.90;1.77;;;18.60;53.50;;;;;;4967239;28;106735;-70
2022/03/17 07:10:35;;;;;;;7.10;1.90;;;18.70;53.50;;;;;;4968306;28;103385;-70
2022/03/17 07:13:01;;;;;;;8.13;1.85;;;18.70;53.50;;;;;;4969063;28;98194;-71
2022/03/17 07:15:26;;;;;;;10.00;2.10;;;18.70;53.60;;;;;;4967375;28;107980;-68
2022/03/17 07:17:52;;;;;;;10.48;1.88;;;18.80;53.70;;;;;;4967396;28;99890;-68
2022/03/17 07:20:21;;;;;;;8.05;1.70;;;18.80;53.70;;;;;;4966956;28;99828;-68
2022/03/17 07:22:49;;;;;;;11.40;1.80;;;18.70;53.70;;;;;;4966808;28;98640;-68
2022/03/17 07:25:17;;;;;;;12.25;2.38;;;18.70;53.60;;;;;;4967362;28;100762;-68
2022/03/17 07:27:45;;;;;;;5.20;2.03;;;18.70;53.60;;;;;;4967327;28;101053;-67
2022/03/17 07:30:18;;;;;;;7.50;1.85;;;18.70;53.70;;;;;;4967881;28;98554;-66
2022/03/17 07:32:45;;;;;;;8.38;2.10;;;18.70;53.70;;;;;;4968592;28;99102;-69
2022/03/17 07:35:11;;;;;;;6.05;1.83;;;18.70;53.70;;;;;;4967287;28;100176;-68
2022/03/17 07:37:36;;;;;;;5.63;1.90;;;18.60;53.70;;;;;;4967856;28;99873;-68
2022/03/17 07:40:02;;;;;;;7.28;2.03;;;18.60;53.70;;;;;;4967151;28;99017;-68
2022/03/17 07:42:28;;;;;;;6.95;1.50;;;18.60;53.70;;;;;;4967330;28;99100;-68
2022/03/17 07:44:54;;;;;;;6.82;1.60;;;18.60;53.70;;;;;;4966785;28;99878;-67
2022/03/17 07:47:19;;;;;;;5.18;1.55;;;18.60;53.90;;;;;;4967646;28;100693;-68
2022/03/17 07:49:45;;;;;;;6.28;1.80;;;18.60;53.90;;;;;;4966855;28;98619;-68
2022/03/17 07:52:11;;;;;;;5.85;1.83;;;18.60;53.90;;;;;;4967658;28;98536;-67
2022/03/17 07:54:37;;;;;;;5.95;1.75;;;18.50;53.90;;;;;;4967785;28;101641;-67
2022/03/17 07:57:03;;;;;;;9.07;1.90;;;18.50;54.00;;;;;;4967359;28;99289;-68
2022/03/17 07:59:30;;;;;;;9.07;2.08;;;18.50;54.00;;;;;;4968009;28;98771;-68
2022/03/17 08:01:56;;;;;;;5.70;1.80;;;18.50;54.00;;;;;;4969054;28;98146;-68
2022/03/17 08:04:33;;;;;;;7.53;1.70;;;18.40;54.00;;;;;;4971529;28;99091;-68
2022/03/17 08:07:01;;;;;;;5.60;1.50;;;18.50;54.10;;;;;;4972253;28;98808;-67
2022/03/17 08:09:27;;;;;;;8.88;2.03;;;18.40;54.00;;;;;;4969535;28;99743;-67
2022/03/17 08:11:53;;;;;;;5.85;1.80;;;18.40;54.20;;;;;;4967645;28;99122;-67
2022/03/17 08:14:20;;;;;;;5.78;1.55;;;18.40;54.10;;;;;;4966289;28;100085;-68
2022/03/17 08:16:45;;;;;;;5.47;1.55;;;18.40;54.20;;;;;;4967110;28;99885;-67
2022/03/17 08:19:11;;;;;;;4.68;1.40;;;18.40;54.10;;;;;;4966766;28;98782;-69
2022/03/17 08:21:39;;;;;;;6.88;2.08;;;18.40;54.20;;;;;;4967176;28;100934;-68
2022/03/17 08:24:08;;;;;;;4.72;1.63;;;18.40;54.20;;;;;;4966304;28;100308;-68
2022/03/17 08:26:34;;;;;;;6.60;1.67;;;18.30;54.10;;;;;;4966989;28;99378;-68
2022/03/17 08:29:01;;;;;;;3.88;1.48;;;18.30;54.20;;;;;;4967189;28;98839;-68
2022/03/17 08:31:27;;;;;;;7.03;1.90;;;18.30;54.20;;;;;;4967543;28;98662;-67
2022/03/17 08:33:56;;;;;;;6.90;1.70;;;18.30;54.20;;;;;;4966164;28;99788;-68
2022/03/17 08:36:23;;;;;;;5.75;1.77;;;18.30;54.40;;;;;;4966751;28;101232;-68
2022/03/17 08:38:53;;;;;;;5.40;2.10;;;18.30;54.30;;;;;;4967491;28;99538;-68
2022/03/17 08:41:20;;;;;;;4.43;1.65;;;18.30;54.40;;;;;;4967917;28;98969;-68
2022/03/17 08:43:46;;;;;;;6.85;1.80;;;18.30;54.40;;;;;;4966407;28;101131;-67
2022/03/17 08:51:40;;;;;;;7.80;1.88;;;18.20;54.40;;;;;;4966751;28;97751;-68
2022/03/17 08:54:06;;;;;;;8.13;2.08;;;18.20;54.50;;;;;;4967264;28;99063;-68
2022/03/17 08:56:36;;;;;;;5.20;1.67;;;18.20;54.50;;;;;;4966554;28;99812;-68
2022/03/17 08:59:03;;;;;;;4.63;1.55;;;18.20;54.60;;;;;;4967672;28;99897;-68
2022/03/17 09:01:29;;;;;;;6.43;2.00;;;18.20;54.60;;;;;;4969836;28;98970;-68
2022/03/17 09:03:55;;;;;;;4.35;1.45;;;18.20;54.50;;;;;;4970527;28;100855;-68
2022/03/17 09:06:22;;;;;;;5.30;1.45;;;18.20;54.50;;;;;;4969940;28;98816;-67
2022/03/17 09:08:49;;;;;;;6.75;1.60;;;18.20;55.50;;;;;;4971392;28;99188;-67
2022/03/17 09:11:15;;;;;;;6.18;1.80;;;18.10;54.40;;;;;;4970341;28;98675;-67
2022/03/17 09:13:41;;;;;;;8.65;1.60;;;18.10;54.30;;;;;;4969736;28;100275;-67
2022/03/17 09:16:07;;;;;;;4.53;1.40;;;18.10;54.40;;;;;;4969978;28;98876;-67
2022/03/17 09:18:32;;;;;;;4.18;1.40;;;18.10;54.40;;;;;;4969356;28;99129;-67
2022/03/17 09:21:01;;;;;;;3.78;1.63;;;18.10;54.40;;;;;;4969949;28;99083;-67
2022/03/17 09:23:29;;;;;;;6.00;1.67;;;18.20;54.60;;;;;;4969338;28;100676;-68
2022/03/17 09:25:56;;;;;;;6.95;1.65;;;18.10;54.60;;;;;;4969183;28;100747;-67
2022/03/17 09:28:22;;;;;;;6.72;1.70;;;18.10;54.70;;;;;;4969607;28;98682;-68
2022/03/17 09:30:49;;;;;;;4.65;1.40;;;18.10;54.90;;;;;;4968971;28;98763;-67
2022/03/17 09:33:14;;;;;;;5.38;1.60;;;18.10;54.90;;;;;;4968122;28;100266;-67
2022/03/17 09:35:40;;;;;;;4.47;1.50;;;18.10;54.90;;;;;;4970192;28;98984;-67
2022/03/17 09:38:08;;;;;;;7.32;1.67;;;18.10;54.90;;;;;;4970502;28;99023;-67
2022/03/17 09:40:38;;;;;;;6.25;1.58;;;18.10;54.90;;;;;;4970750;28;97848;-68
2022/03/17 09:43:21;;;;;;;4.20;1.60;;;18.10;54.80;;;;;;4970971;28;101395;-68
2022/03/17 09:45:50;;;;;;;;;;;18.10;54.80;;;;;;4970294;28;99937;-69
2022/03/17 09:48:17;;;;;;;7.60;1.60;;;18.10;54.70;;;;;;4973166;28;99429;-67
2022/03/17 09:50:45;;;;;;;5.22;1.63;;;18.00;54.80;;;;;;4975088;28;98936;-67
2022/03/17 09:53:11;;;;;;;4.50;1.35;;;18.10;54.80;;;;;;4970977;28;99339;-68
2022/03/17 09:55:37;;;;;;;4.47;1.38;;;18.10;54.70;;;;;;4969153;28;98880;-68
2022/03/17 09:58:06;;;;;;;4.13;1.50;;;18.10;54.50;;;;;;4969499;28;99119;-68
2022/03/17 10:00:47;;;;;;;4.03;1.63;;;18.10;54.50;;;;;;4968786;28;98926;-67
2022/03/17 10:03:22;;;;;;;4.25;1.55;;;18.10;54.50;;;;;;4968039;28;99178;-68
2022/03/17 10:05:49;;;;;;;4.90;1.73;;;18.10;54.40;;;;;;4968871;28;98895;-70
2022/03/17 10:08:17;;;;;;;3.63;1.42;;;18.10;54.40;;;;;;4968778;28;98659;-67
2022/03/17 10:10:43;;;;;;;4.93;1.92;;;18.10;54.30;;;;;;4968541;28;98874;-68
2022/03/17 10:13:20;;;;;;;6.65;1.80;;;18.10;54.20;;;;;;4967447;28;101274;-68
2022/03/17 10:16:08;;;;;;;4.35;1.50;;;18.10;54.20;;;;;;4968674;28;100193;-69
2022/03/17 10:18:37;;;;;;;4.13;1.52;;;18.20;54.10;;;;;;4968259;28;98690;-68
2022/03/17 10:21:13;;;;;;;5.00;1.50;;;18.20;54.20;;;;;;4968435;28;99084;-68
2022/03/17 10:23:49;;;;;;;4.55;1.40;;;18.20;54.00;;;;;;4968497;28;99717;-67
2022/03/17 10:26:36;;;;;;;5.22;1.85;;;18.20;54.00;;;;;;4968447;28;99097;-69
2022/03/17 10:29:15;;;;;;;4.63;1.30;;;18.20;54.00;;;;;;4970095;28;99249;-67
2022/03/17 10:31:59;;;;;;;4.03;1.23;;;18.20;54.00;;;;;;4969217;28;98842;-68
2022/03/17 10:34:28;;;;;;;6.18;1.70;;;18.20;53.80;;;;;;4969061;28;99153;-68
2022/03/17 10:37:36;;;;;;;4.80;1.40;;;18.20;53.90;;;;;;4967716;28;101153;-67
2022/03/17 10:40:08;;;;;;;4.35;1.35;;;18.30;53.80;;;;;;4950895;28;99771;-68
2022/03/17 10:42:33;;;;;;;4.25;1.40;;;18.30;53.80;;;;;;4967655;28;99519;-68
2022/03/17 10:45:05;;;;;;;4.78;1.70;;;18.30;53.80;;;;;;4966990;28;103748;-67
2022/03/17 10:47:33;;;;;;;3.55;1.20;;;18.30;53.60;;;;;;4967586;28;100667;-68
2022/03/17 10:50:20;;;;;;;5.15;1.63;;;18.30;53.50;;;;;;4969011;28;98896;-69
2022/03/17 10:52:52;;;;;;;4.35;1.45;;;18.40;53.40;;;;;;4968229;28;98652;-68
2022/03/17 10:55:30;;;;;;;4.15;1.50;;;18.40;53.40;;;;;;4968233;28;100227;-68
2022/03/17 10:58:20;;;;;;;3.95;1.35;;;18.30;53.20;;;;;;4968923;28;98530;-68
2022/03/17 11:00:55;;;;;;;4.15;1.50;;;18.30;53.20;;;;;;4968790;28;99533;-68
2022/03/17 11:03:21;;;;;;;6.82;1.55;;;18.40;53.20;;;;;;4968631;28;98802;-68
2022/03/17 11:05:50;;;;;;;5.65;1.40;;;18.40;53.20;;;;;;4967303;28;100452;-67
2022/03/17 11:08:18;;;;;;;3.55;1.23;;;18.40;53.10;;;;;;4966989;28;101565;-68
2022/03/17 11:10:45;;;;;;;5.07;1.83;;;18.30;53.10;;;;;;4968975;28;99045;-67
2022/03/17 11:13:11;;;;;;;6.32;1.58;;;18.40;53.10;;;;;;4968001;28;98697;-68
2022/03/17 11:15:45;;;;;;;4.32;1.20;;;18.30;53.00;;;;;;4967328;28;100525;-69
2022/03/17 11:18:20;;;;;;;4.75;1.50;;;18.30;53.10;;;;;;4966628;28;100212;-67
2022/03/17 11:20:46;;;;;;;3.58;1.20;;;18.30;53.00;;;;;;4967775;28;98626;-68
2022/03/17 11:23:20;;;;;;;4.05;1.70;;;18.30;52.90;;;;;;4968078;28;97865;-68
2022/03/17 11:25:57;;;;;;;4.30;1.70;;;18.30;52.90;;;;;;4967118;28;100302;-68
2022/03/17 11:28:33;;;;;;;5.05;1.70;;;18.30;52.80;;;;;;4966890;28;99503;-68
2022/03/17 11:31:07;;;;;;;3.08;1.27;;;18.30;52.90;;;;;;4966864;28;99843;-68
2022/03/17 11:33:36;;;;;;;4.70;1.67;;;18.30;52.80;;;;;;4970140;28;99014;-68
2022/03/17 11:36:21;;;;;;;5.10;1.45;;;18.40;52.80;;;;;;4971428;28;99800;-67
2022/03/17 11:39:02;;;;;;;6.22;1.88;;;18.40;52.70;;;;;;4971381;28;99028;-68
2022/03/17 11:41:31;;;;;;;5.55;1.65;;;18.40;52.70;;;;;;4968494;28;98731;-68
2022/03/17 11:44:01;;;;;;;4.03;1.65;;;18.40;52.70;;;;;;4967550;28;99076;-68
2022/03/17 11:46:42;;;;;;;5.18;1.50;;;18.40;52.60;;;;;;4967111;28;99559;-68
2022/03/17 11:49:19;;;;;;;5.28;1.55;;;18.40;52.60;;;;;;4967611;28;98766;-68
2022/03/17 11:51:53;;;;;;;5.28;1.58;;;18.40;52.60;;;;;;4966799;28;99170;-68
2022/03/17 11:54:19;;;;;;;5.72;1.63;;;18.30;52.50;;;;;;4967365;28;98812;-68
2022/03/17 11:56:47;;;;;;;4.78;1.48;;;18.30;52.50;;;;;;4966762;28;104179;-67
2022/03/17 11:59:16;;;;;;;3.92;1.20;;;18.30;52.50;;;;;;4966603;28;100620;-68
2022/03/17 12:01:44;;;;;;;5.20;1.83;;;18.30;52.60;;;;;;4966158;28;99123;-68
2022/03/17 12:04:22;;;;;;;5.20;1.50;;;18.30;52.50;;;;;;4966737;28;98690;-68
2022/03/17 12:07:05;;;;;;;5.70;1.50;;;18.40;52.50;;;;;;4965991;28;101409;-68
2022/03/17 12:09:34;;;;;;;4.47;1.48;;;18.30;52.40;;;;;;4966332;28;99532;-70
2022/03/17 12:11:59;;;;;;;4.90;1.58;;;18.30;52.40;;;;;;4966695;28;99940;-68
2022/03/17 12:14:27;;;;;;;6.32;1.65;;;18.30;52.40;;;;;;4966514;28;99064;-68
2022/03/17 12:17:12;;;;;;;4.47;1.30;;;18.30;52.40;;;;;;4966226;28;99760;-68
2022/03/17 12:19:48;;;;;;;6.30;1.73;;;18.30;52.30;;;;;;4951460;28;98864;-68
2022/03/17 12:22:43;;;;;;;3.53;1.40;;;18.30;52.30;;;;;;4967663;28;99672;-69
2022/03/17 12:25:19;;;;;;;3.22;1.30;;;18.30;52.20;;;;;;4965264;28;98683;-68
2022/03/17 12:27:53;;;;;;;5.60;1.50;;;18.30;52.20;;;;;;4966383;28;100552;-68
2022/03/17 12:30:20;;;;;;;3.40;1.38;;;18.30;52.20;;;;;;4966006;28;99888;-67
2022/03/17 12:32:54;;;;;;;4.07;1.27;;;18.30;52.20;;;;;;4967330;28;98866;-67
2022/03/17 12:35:25;;;;;;;4.60;1.40;;;18.30;52.10;;;;;;4969292;28;99040;-67
2022/03/17 12:37:59;;;;;;;3.15;1.42;;;18.30;52.10;;;;;;4952527;28;99921;-67
2022/03/17 12:40:25;;;;;;;4.70;1.23;;;18.30;52.20;;;;;;4968740;28;100021;-67
2022/03/17 12:42:52;;;;;;;3.45;1.17;;;18.30;52.20;;;;;;4970921;28;98577;-67
2022/03/17 12:45:24;;;;;;;3.92;1.50;;;18.30;52.10;;;;;;4970820;28;99009;-67
2022/03/17 12:47:56;;;;;;;3.67;1.20;;;18.40;52.10;;;;;;4969335;28;99903;-68
2022/03/17 12:50:23;;;;;;;3.72;1.35;;;18.40;52.00;;;;;;4969290;28;100648;-69
2022/03/17 12:52:49;;;;;;;11.45;3.83;;;18.40;52.00;;;;;;4968985;28;99665;-68
2022/03/17 12:55:18;;;;;;;7.45;3.03;;;18.40;53.10;;;;;;4969837;28;98658;-68
2022/03/17 12:57:47;;;;;;;7.82;2.30;;;18.50;53.80;;;;;;4969374;28;100237;-68
2022/03/17 13:00:15;;;;;;;7.82;2.55;;;18.50;53.50;;;;;;4968994;28;99807;-68
2022/03/17 13:02:48;;;;;;;8.25;2.13;;;18.60;53.30;;;;;;4968905;28;99086;-68
2022/03/17 13:08:04;;;;;;;7.05;2.10;;;18.60;53.10;;;;;;4968356;28;98865;-68
2022/03/17 13:14:20;;;;;;;6.13;1.92;;;18.60;52.90;;;;;;4969947;28;100076;-68
2022/03/17 13:16:09;;;;;;;4.97;2.08;;;18.60;52.70;;;;;;4969544;28;98923;-68
2022/03/17 13:18:45;;;;;;;4.93;1.85;;;18.70;52.70;;;;;;4971972;28;99191;-68
2022/03/17 13:21:24;;;;;;;5.25;2.00;;;18.70;52.60;;;;;;4973179;28;99954;-69
2022/03/17 13:23:50;;;;;;;8.27;2.58;;;18.70;52.50;;;;;;4970495;28;99005;-68
2022/03/17 13:26:27;;;;;;;5.60;2.08;;;18.70;52.50;;;;;;4969860;28;98972;-68
2022/03/17 13:29:00;;;;;;;6.03;2.05;;;18.70;52.40;;;;;;4969681;28;100833;-68
2022/03/17 13:31:39;;;;;;;7.20;2.00;;;18.70;52.30;;;;;;4969916;28;99336;-68
2022/03/17 13:34:06;;;;;;;5.10;2.00;;;18.70;52.30;;;;;;4970844;28;98735;-69
2022/03/17 13:36:55;;;;;;;4.82;1.85;;;18.70;52.20;;;;;;4970379;28;99253;-70
2022/03/17 13:39:34;;;;;;;7.82;1.98;;;18.70;52.50;;;;;;4969661;28;101092;-68
2022/03/17 13:42:09;;;;;;;4.88;1.70;;;18.70;52.60;;;;;;4969712;28;100078;-69
2022/03/17 13:45:02;;;;;;;5.78;1.50;;;18.70;52.70;;;;;;4970188;28;98787;-69
2022/03/17 13:47:32;;;;;;;7.57;1.77;;;18.80;52.80;;;;;;4966018;28;98706;-68
2022/03/17 13:50:20;;;;;;;5.68;1.55;;;18.80;52.70;;;;;;4969349;28;100142;-70
2022/03/17 13:53:04;;;;;;;9.48;1.92;;;18.80;52.60;;;;;;4970077;28;99348;-70
2022/03/17 13:55:57;;;;;;;5.38;1.55;;;18.80;52.50;;;;;;4971081;28;98628;-71
2022/03/17 13:58:27;;;;;;;;;;;18.80;52.40;;;;;;4967781;28;98352;-71
2022/03/17 14:00:55;;;;;;;7.95;1.98;;;18.80;52.40;;;;;;4970920;28;99439;-71
2022/03/17 14:03:29;;;;;;;4.75;1.80;;;18.80;52.40;;;;;;4968657;28;99447;-69
2022/03/17 14:06:02;;;;;;;6.15;1.75;;;18.90;52.30;;;;;;4968714;28;99674;-69
2022/03/17 14:08:32;;;;;;;6.70;1.75;;;18.90;52.50;;;;;;4969227;28;100664;-70
2022/03/17 14:10:59;;;;;;;6.35;1.63;;;18.90;52.80;;;;;;4968863;28;99800;-70
2022/03/17 14:13:25;;;;;;;5.65;1.65;;;19.00;52.70;;;;;;4969712;28;99001;-70
2022/03/17 14:15:52;;;;;;;6.75;1.80;;;19.00;52.90;;;;;;4971090;28;98586;-70
2022/03/17 14:18:19;;;;;;;5.20;1.30;;;19.00;53.00;;;;;;4969856;28;98639;-71